createdAt,value
2023-03-29T00:00:02.548Z,-0.60
2023-03-29T00:02:32.825Z,-0.60
2023-03-29T00:05:04.267Z,-0.70
2023-03-29T00:07:35.362Z,-0.70
2023-03-29T00:10:04.816Z,-0.80
2023-03-29T00:12:32.672Z,-0.80
2023-03-29T00:14:59.904Z,-0.90
2023-03-29T00:17:27.159Z,-0.90
2023-03-29T00:19:54.251Z,-0.80
2023-03-29T00:22:22.358Z,-0.90
2023-03-29T00:24:54.064Z,-0.90
2023-03-29T00:27:22.475Z,-0.90
2023-03-29T00:29:49.852Z,-0.90
2023-03-29T00:32:17.027Z,-0.90
2023-03-29T00:34:46.384Z,-0.80
2023-03-29T00:37:15.179Z,-0.70
2023-03-29T00:39:42.591Z,-0.60
2023-03-29T00:42:16.881Z,-0.60
2023-03-29T00:45:04.907Z,-0.50
2023-03-29T00:47:51.439Z,-0.40
2023-03-29T00:50:22.600Z,-0.40
2023-03-29T00:53:03.776Z,-0.40
2023-03-29T00:55:39.154Z,-0.40
2023-03-29T00:58:10.525Z,-0.30
2023-03-29T01:00:47.674Z,-0.30
2023-03-29T01:03:25.066Z,-0.30
2023-03-29T01:05:58.599Z,-0.20
2023-03-29T01:08:38.347Z,-0.20
2023-03-29T01:11:23.013Z,-0.20
2023-03-29T01:14:04.089Z,-0.20
2023-03-29T01:16:33.282Z,-0.20
2023-03-29T01:19:02.681Z,-0.20
2023-03-29T01:22:15.016Z,-0.20
2023-03-29T01:24:42.260Z,-0.20
2023-03-29T01:27:14.232Z,-0.20
2023-03-29T01:29:57.716Z,-0.10
2023-03-29T01:32:40.410Z,-0.10
2023-03-29T01:35:28.402Z,0.00
2023-03-29T01:38:39.738Z,0.00
2023-03-29T01:41:08.130Z,0.00
2023-03-29T01:43:57.298Z,0.10
2023-03-29T01:46:39.818Z,0.10
2023-03-29T01:49:34.901Z,0.10
2023-03-29T01:52:08.458Z,0.10
2023-03-29T01:54:41.081Z,0.10
2023-03-29T01:57:10.781Z,0.10
2023-03-29T01:59:43.025Z,0.10
2023-03-29T02:02:16.908Z,0.10
2023-03-29T02:04:54.335Z,0.10
2023-03-29T02:07:30.701Z,0.10
2023-03-29T02:09:59.518Z,0.20
2023-03-29T02:12:27.165Z,0.10
2023-03-29T02:14:54.684Z,0.10
2023-03-29T02:17:25.315Z,0.10
2023-03-29T02:20:14.069Z,0.10
2023-03-29T02:23:02.524Z,0.10
2023-03-29T02:25:30.252Z,0.10
2023-03-29T02:27:57.752Z,0.00
2023-03-29T02:30:30.131Z,0.10
2023-03-29T02:33:19.831Z,0.10
2023-03-29T02:35:55.024Z,0.10
2023-03-29T02:38:26.746Z,0.10
2023-03-29T02:40:56.929Z,0.10
2023-03-29T02:43:26.129Z,0.10
2023-03-29T02:45:54.134Z,0.20
2023-03-29T02:48:25.561Z,0.20
2023-03-29T02:50:58.353Z,0.30
2023-03-29T02:53:34.839Z,0.30
2023-03-29T02:56:04.798Z,0.40
2023-03-29T02:58:31.972Z,0.40
2023-03-29T03:01:01.727Z,0.40
2023-03-29T03:03:29.449Z,0.40
2023-03-29T03:05:56.682Z,0.50
2023-03-29T03:08:23.879Z,0.50
2023-03-29T03:10:51.029Z,0.50
2023-03-29T03:13:18.318Z,0.50
2023-03-29T03:15:49.569Z,0.50
2023-03-29T03:18:16.909Z,0.50
2023-03-29T03:20:46.727Z,0.60
2023-03-29T03:23:13.932Z,0.60
2023-03-29T03:25:41.041Z,0.60
2023-03-29T03:28:08.244Z,0.60
2023-03-29T03:30:35.356Z,0.60
2023-03-29T03:33:02.493Z,0.60
2023-03-29T03:35:29.919Z,0.60
2023-03-29T03:37:57.138Z,0.60
2023-03-29T03:40:25.581Z,0.60
2023-03-29T03:42:54.311Z,0.60
2023-03-29T03:45:21.921Z,0.70
2023-03-29T03:47:50.168Z,0.80
2023-03-29T03:50:17.945Z,0.80
2023-03-29T03:52:45.447Z,0.90
2023-03-29T03:55:12.621Z,0.90
2023-03-29T03:57:39.994Z,0.90
2023-03-29T04:00:20.311Z,1.00
2023-03-29T04:02:48.926Z,1.00
2023-03-29T04:05:17.428Z,1.10
2023-03-29T04:07:44.588Z,1.20
2023-03-29T04:10:12.092Z,1.10
2023-03-29T04:12:39.943Z,1.20
2023-03-29T04:15:07.846Z,1.10
2023-03-29T04:17:35.287Z,1.10
2023-03-29T04:20:07.268Z,1.10
2023-03-29T04:22:34.417Z,1.00
2023-03-29T04:25:01.606Z,1.10
2023-03-29T04:27:28.747Z,1.10
2023-03-29T04:29:56.150Z,1.20
2023-03-29T04:32:24.487Z,1.20
2023-03-29T04:34:51.616Z,1.20
2023-03-29T04:37:22.233Z,1.20
2023-03-29T04:39:50.310Z,1.30
2023-03-29T04:42:18.383Z,1.30
2023-03-29T04:44:46.093Z,1.30
2023-03-29T04:47:13.457Z,1.40
2023-03-29T04:49:41.601Z,1.40
2023-03-29T04:52:09.592Z,1.50
2023-03-29T04:54:37.729Z,1.50
2023-03-29T04:57:08.535Z,1.60
2023-03-29T04:59:35.736Z,1.60
2023-03-29T05:02:05.128Z,1.60
2023-03-29T05:04:33.284Z,1.70
2023-03-29T05:07:02.355Z,1.80
2023-03-29T05:09:29.755Z,1.80
2023-03-29T05:11:56.970Z,1.90
2023-03-29T05:14:24.117Z,2.00
2023-03-29T05:16:51.269Z,2.00
2023-03-29T05:19:21.972Z,2.00
2023-03-29T05:21:50.252Z,2.10
2023-03-29T05:24:17.956Z,2.20
2023-03-29T05:26:45.294Z,2.20
2023-03-29T05:29:12.460Z,2.20
2023-03-29T05:31:39.768Z,2.20
2023-03-29T05:34:07.272Z,2.10
2023-03-29T05:36:34.584Z,2.10
2023-03-29T05:39:02.361Z,2.00
2023-03-29T05:41:29.536Z,2.00
2023-03-29T05:43:56.902Z,1.90
2023-03-29T05:46:24.116Z,1.90
2023-03-29T05:48:51.293Z,1.80
2023-03-29T05:51:19.350Z,1.80
2023-03-29T05:53:46.863Z,1.80
2023-03-29T05:56:16.261Z,1.80
2023-03-29T05:58:43.597Z,1.70
2023-03-29T06:01:15.126Z,1.70
2023-03-29T06:03:42.648Z,1.70
2023-03-29T06:06:10.642Z,1.70
2023-03-29T06:08:37.817Z,1.70
2023-03-29T06:11:09.506Z,1.70
2023-03-29T06:13:39.081Z,1.80
2023-03-29T06:16:07.171Z,1.80
2023-03-29T06:18:34.627Z,1.80
2023-03-29T06:21:05.148Z,1.80
2023-03-29T06:23:32.938Z,1.90
2023-03-29T06:26:00.413Z,1.90
2023-03-29T06:28:28.001Z,2.00
2023-03-29T06:30:56.613Z,2.00
2023-03-29T06:33:25.462Z,2.10
2023-03-29T06:35:53.469Z,2.10
2023-03-29T06:38:21.131Z,2.00
2023-03-29T06:40:48.638Z,2.10
2023-03-29T06:43:16.556Z,2.00
2023-03-29T06:45:44.009Z,2.00
2023-03-29T06:48:11.583Z,2.00
2023-03-29T06:50:39.014Z,2.00
2023-03-29T06:53:06.269Z,2.10
2023-03-29T06:55:33.447Z,2.20
2023-03-29T06:58:02.694Z,2.20
2023-03-29T07:00:30.984Z,2.30
2023-03-29T07:03:00.939Z,2.20
2023-03-29T07:05:29.043Z,2.20
2023-03-29T07:08:13.837Z,2.20
2023-03-29T07:10:47.712Z,2.20
2023-03-29T07:13:16.258Z,2.30
2023-03-29T07:15:45.123Z,2.30
2023-03-29T07:18:15.862Z,2.30
2023-03-29T07:20:43.666Z,2.30
2023-03-29T07:23:12.283Z,2.30
2023-03-29T07:25:39.680Z,2.30
2023-03-29T07:28:07.274Z,2.40
2023-03-29T07:30:34.800Z,2.50
2023-03-29T07:33:02.214Z,2.50
2023-03-29T07:35:31.021Z,2.50
2023-03-29T07:37:59.204Z,2.40
2023-03-29T07:40:26.747Z,2.40
2023-03-29T07:42:57.128Z,2.50
2023-03-29T07:45:28.368Z,2.50
2023-03-29T07:48:00.296Z,2.60
2023-03-29T07:50:28.492Z,2.80
2023-03-29T07:52:57.319Z,2.80
2023-03-29T07:55:24.804Z,2.90
2023-03-29T07:57:52.177Z,2.90
2023-03-29T08:00:20.366Z,2.90
2023-03-29T08:02:50.921Z,2.90
2023-03-29T08:05:29.219Z,3.10
2023-03-29T08:08:06.859Z,3.20
2023-03-29T08:10:34.598Z,3.20
2023-03-29T08:13:07.495Z,3.20
2023-03-29T08:15:36.027Z,3.30
2023-03-29T08:18:03.281Z,3.30
2023-03-29T08:20:31.048Z,3.30
2023-03-29T08:22:58.445Z,3.30
2023-03-29T08:25:26.109Z,3.50
2023-03-29T08:27:53.764Z,3.40
2023-03-29T08:30:21.221Z,3.30
2023-03-29T08:32:50.503Z,3.70
2023-03-29T08:35:19.885Z,4.10
2023-03-29T08:37:47.442Z,4.30
2023-03-29T08:40:22.491Z,4.30
2023-03-29T08:43:11.315Z,4.40
2023-03-29T08:45:51.506Z,4.70
2023-03-29T08:48:48.417Z,4.50
2023-03-29T08:51:28.485Z,4.60
2023-03-29T08:54:25.706Z,4.70
2023-03-29T08:56:58.482Z,4.80
2023-03-29T08:59:33.311Z,4.60
2023-03-29T09:02:04.424Z,4.70
2023-03-29T09:04:37.848Z,4.80
2023-03-29T09:07:10.023Z,4.70
2023-03-29T09:09:38.380Z,4.70
2023-03-29T09:12:08.363Z,4.90
2023-03-29T09:15:02.111Z,5.10
2023-03-29T09:18:08.778Z,5.10
2023-03-29T09:20:39.036Z,5.20
2023-03-29T09:23:26.044Z,5.20
2023-03-29T09:26:17.353Z,5.10
2023-03-29T09:29:09.543Z,5.00
2023-03-29T09:31:43.124Z,5.30
2023-03-29T09:34:25.191Z,5.10
2023-03-29T09:37:07.921Z,5.00
2023-03-29T09:39:36.577Z,4.80
2023-03-29T09:42:08.373Z,4.70
2023-03-29T09:44:49.595Z,4.50
2023-03-29T09:47:28.326Z,4.50
2023-03-29T09:50:11.827Z,4.60
2023-03-29T09:52:44.108Z,4.80
2023-03-29T09:55:15.310Z,5.10
2023-03-29T09:57:44.080Z,5.70
2023-03-29T10:00:14.185Z,5.90
2023-03-29T10:02:41.471Z,5.90
2023-03-29T10:05:16.195Z,6.00
2023-03-29T10:07:49.165Z,6.20
2023-03-29T10:10:28.097Z,6.00
2023-03-29T10:13:03.952Z,6.00
2023-03-29T10:15:31.810Z,6.00
2023-03-29T10:18:06.955Z,6.10
2023-03-29T10:20:39.505Z,6.20
2023-03-29T10:23:08.493Z,6.10
2023-03-29T10:25:43.013Z,6.20
2023-03-29T10:28:17.936Z,6.10
2023-03-29T10:30:52.929Z,6.00
2023-03-29T10:33:24.213Z,6.10
2023-03-29T10:35:51.951Z,6.10
2023-03-29T10:38:23.179Z,6.00
2023-03-29T10:40:53.393Z,6.00
2023-03-29T10:43:26.404Z,5.90
2023-03-29T10:45:56.533Z,6.10
2023-03-29T10:48:31.381Z,6.50
2023-03-29T10:51:01.119Z,6.50
2023-03-29T10:53:37.823Z,6.70
2023-03-29T10:56:28.146Z,7.10
2023-03-29T10:59:15.892Z,7.10
2023-03-29T11:02:14.303Z,7.40
2023-03-29T11:04:49.568Z,7.80
2023-03-29T11:07:31.966Z,7.90
2023-03-29T11:10:31.675Z,8.00
2023-03-29T11:13:31.027Z,7.90
2023-03-29T11:16:02.781Z,8.00
2023-03-29T11:19:00.573Z,7.90
2023-03-29T11:21:40.500Z,7.50
2023-03-29T11:24:27.769Z,7.20
2023-03-29T11:27:19.214Z,7.50
2023-03-29T11:30:08.605Z,7.70
2023-03-29T11:32:55.783Z,8.10
2023-03-29T11:35:48.456Z,7.90
2023-03-29T11:38:33.111Z,7.60
2023-03-29T11:41:31.846Z,7.90
2023-03-29T11:44:13.557Z,8.10
2023-03-29T11:47:09.986Z,8.40
2023-03-29T11:49:44.667Z,8.40
2023-03-29T11:52:32.784Z,8.00
2023-03-29T11:55:10.291Z,7.90
2023-03-29T11:57:58.896Z,7.50
2023-03-29T12:00:33.540Z,7.40
2023-03-29T12:03:19.283Z,7.30
2023-03-29T12:05:58.121Z,7.20
2023-03-29T12:08:33.188Z,7.10
2023-03-29T12:11:21.606Z,6.60
2023-03-29T12:13:54.009Z,6.80
2023-03-29T12:16:47.594Z,6.80
2023-03-29T12:19:43.674Z,7.10
2023-03-29T12:22:11.292Z,7.30
2023-03-29T12:24:42.744Z,7.40
2023-03-29T12:27:22.341Z,7.50
2023-03-29T12:30:13.270Z,7.50
2023-03-29T12:33:00.602Z,7.60
2023-03-29T12:35:52.699Z,7.80
2023-03-29T12:38:26.720Z,8.10
2023-03-29T12:41:03.501Z,7.90
2023-03-29T12:43:33.422Z,8.10
2023-03-29T12:46:20.597Z,7.90
2023-03-29T12:48:53.172Z,7.70
2023-03-29T12:51:24.306Z,8.40
2023-03-29T12:53:54.175Z,8.70
2023-03-29T12:56:39.669Z,9.00
2023-03-29T12:59:28.410Z,9.10
2023-03-29T13:02:10.011Z,8.70
2023-03-29T13:04:49.491Z,8.70
2023-03-29T13:07:31.013Z,9.10
2023-03-29T13:10:04.250Z,9.40
2023-03-29T13:12:42.494Z,9.30
2023-03-29T13:15:17.143Z,9.10
2023-03-29T13:17:48.983Z,9.20
2023-03-29T13:20:50.094Z,9.30
2023-03-29T13:23:57.502Z,9.00
2023-03-29T13:26:36.786Z,9.20
2023-03-29T13:29:18.954Z,9.30
2023-03-29T13:32:06.767Z,9.40
2023-03-29T13:34:48.548Z,9.50
2023-03-29T13:37:18.765Z,9.70
2023-03-29T13:39:51.892Z,9.30
2023-03-29T13:42:26.678Z,9.10
2023-03-29T13:45:04.700Z,9.10
2023-03-29T13:47:32.740Z,9.40
2023-03-29T13:50:05.698Z,9.60
2023-03-29T13:52:42.250Z,9.50
2023-03-29T13:55:17.965Z,9.30
2023-03-29T13:58:01.434Z,9.20
2023-03-29T14:00:55.238Z,8.60
2023-03-29T14:03:30.060Z,8.70
2023-03-29T14:06:02.921Z,8.80
2023-03-29T14:08:35.422Z,8.70
2023-03-29T14:11:05.094Z,8.40
2023-03-29T14:13:32.287Z,8.30
2023-03-29T14:16:03.078Z,8.40
2023-03-29T14:18:39.250Z,8.70
2023-03-29T14:21:07.450Z,8.90
2023-03-29T14:23:38.111Z,9.00
2023-03-29T14:26:15.634Z,9.00
2023-03-29T14:29:02.842Z,8.80
2023-03-29T14:31:36.135Z,8.60
2023-03-29T14:34:06.222Z,8.50
2023-03-29T14:36:34.366Z,8.50
2023-03-29T14:39:05.715Z,8.50
2023-03-29T14:41:36.303Z,8.70
2023-03-29T14:44:06.900Z,8.80
2023-03-29T14:46:35.273Z,8.90
2023-03-29T14:49:03.037Z,9.00
2023-03-29T14:51:31.300Z,9.30
2023-03-29T14:54:01.048Z,9.60
2023-03-29T14:56:29.309Z,9.80
2023-03-29T14:58:57.682Z,9.70
2023-03-29T15:01:27.177Z,9.60
2023-03-29T15:03:57.913Z,9.50
2023-03-29T15:06:26.563Z,9.40
2023-03-29T15:09:04.285Z,9.60
2023-03-29T15:11:34.397Z,9.70
2023-03-29T15:14:08.884Z,9.40
2023-03-29T15:16:45.884Z,9.50
2023-03-29T15:19:18.904Z,9.60
2023-03-29T15:21:51.597Z,9.50
2023-03-29T15:24:49.092Z,9.40
2023-03-29T15:27:18.525Z,9.40
2023-03-29T15:29:48.023Z,9.40
2023-03-29T15:32:24.509Z,9.20
2023-03-29T15:35:02.987Z,9.20
2023-03-29T15:37:30.171Z,9.20
2023-03-29T15:39:58.323Z,9.30
2023-03-29T15:42:26.819Z,9.30
2023-03-29T15:44:56.635Z,9.30
2023-03-29T15:47:24.243Z,9.30
2023-03-29T15:49:52.030Z,9.20
2023-03-29T15:52:19.195Z,9.00
2023-03-29T15:54:46.457Z,8.70
2023-03-29T15:57:16.388Z,8.60
2023-03-29T15:59:44.740Z,8.80
2023-03-29T16:02:16.797Z,8.90
2023-03-29T16:04:44.055Z,9.10
2023-03-29T16:07:15.200Z,9.10
2023-03-29T16:09:42.514Z,9.20
2023-03-29T16:12:10.623Z,9.10
2023-03-29T16:14:38.094Z,9.10
2023-03-29T16:17:06.227Z,9.00
2023-03-29T16:19:35.156Z,8.90
2023-03-29T16:22:07.610Z,8.80
2023-03-29T16:24:36.395Z,8.70
2023-03-29T16:27:04.578Z,8.60
2023-03-29T16:29:32.174Z,8.40
2023-03-29T16:31:59.400Z,8.40
2023-03-29T16:34:27.002Z,8.20
2023-03-29T16:36:54.571Z,8.20
2023-03-29T16:39:21.917Z,8.20
2023-03-29T16:41:50.498Z,8.10
2023-03-29T16:44:23.914Z,8.00
2023-03-29T16:46:54.542Z,8.00
2023-03-29T16:49:21.910Z,7.90
2023-03-29T16:51:49.193Z,7.90
2023-03-29T16:54:17.455Z,7.70
2023-03-29T16:56:45.402Z,7.70
2023-03-29T16:59:12.797Z,7.70
2023-03-29T17:01:40.819Z,7.60
2023-03-29T17:04:08.806Z,7.70
2023-03-29T17:06:36.458Z,7.70
2023-03-29T17:09:05.328Z,7.60
2023-03-29T17:11:33.015Z,7.60
2023-03-29T17:14:00.381Z,7.60
2023-03-29T17:16:29.410Z,7.60
2023-03-29T17:19:00.810Z,7.60
2023-03-29T17:21:35.493Z,7.50
2023-03-29T17:24:04.637Z,7.50
2023-03-29T17:26:32.120Z,7.40
2023-03-29T17:28:59.431Z,7.50
2023-03-29T17:31:38.015Z,7.40
2023-03-29T17:34:06.268Z,7.40
2023-03-29T17:36:34.271Z,7.40
2023-03-29T17:39:02.939Z,7.30
2023-03-29T17:41:31.047Z,7.30
2023-03-29T17:43:58.835Z,7.30
2023-03-29T17:46:26.556Z,7.40
2023-03-29T17:48:54.200Z,7.30
2023-03-29T17:51:24.378Z,7.30
2023-03-29T17:53:52.482Z,7.30
2023-03-29T17:56:21.122Z,7.40
2023-03-29T17:58:51.753Z,7.30
2023-03-29T18:01:20.314Z,7.30
2023-03-29T18:03:48.982Z,7.30
2023-03-29T18:06:20.831Z,7.20
2023-03-29T18:08:49.226Z,7.20
2023-03-29T18:11:22.656Z,7.20
2023-03-29T18:13:54.516Z,7.20
2023-03-29T18:16:22.887Z,7.20
2023-03-29T18:18:51.366Z,7.20
2023-03-29T18:21:22.512Z,7.10
2023-03-29T18:23:54.365Z,7.10
2023-03-29T18:26:24.074Z,7.10
2023-03-29T18:28:52.624Z,7.10
2023-03-29T18:31:21.725Z,7.10
2023-03-29T18:33:49.847Z,7.10
2023-03-29T18:36:17.646Z,7.10
2023-03-29T18:38:46.134Z,7.10
2023-03-29T18:41:15.432Z,7.20
2023-03-29T18:43:44.895Z,7.10
2023-03-29T18:46:13.077Z,7.10
2023-03-29T18:48:41.704Z,7.10
2023-03-29T18:51:11.683Z,7.10
2023-03-29T18:53:42.253Z,7.20
2023-03-29T18:56:10.407Z,7.20
2023-03-29T18:58:38.493Z,7.20
2023-03-29T19:01:07.772Z,7.20
2023-03-29T19:03:36.840Z,7.20
2023-03-29T19:06:05.679Z,7.10
2023-03-29T19:08:35.212Z,7.10
2023-03-29T19:11:06.360Z,7.10
2023-03-29T19:13:35.298Z,7.10
2023-03-29T19:16:05.719Z,7.00
2023-03-29T19:18:38.138Z,7.00
2023-03-29T19:21:07.693Z,6.90
2023-03-29T19:23:36.507Z,6.80
2023-03-29T19:26:06.366Z,6.70
2023-03-29T19:28:35.585Z,6.60
2023-03-29T19:31:05.018Z,6.50
2023-03-29T19:33:33.556Z,6.40
2023-03-29T19:36:02.222Z,6.50
2023-03-29T19:38:32.665Z,6.50
2023-03-29T19:41:03.649Z,6.40
2023-03-29T19:43:31.926Z,6.40
2023-03-29T19:46:11.231Z,6.30
2023-03-29T19:48:40.706Z,6.30
2023-03-29T19:51:08.872Z,6.20
2023-03-29T19:53:38.898Z,6.20
2023-03-29T19:56:08.437Z,6.10
2023-03-29T19:58:36.199Z,6.10
2023-03-29T20:01:04.171Z,6.10
2023-03-29T20:03:34.435Z,6.10
2023-03-29T20:06:03.628Z,6.10
2023-03-29T20:08:31.295Z,6.00
2023-03-29T20:11:10.611Z,6.00
2023-03-29T20:13:41.333Z,6.10
2023-03-29T20:16:11.044Z,6.00
2023-03-29T20:18:39.785Z,6.00
2023-03-29T20:21:08.980Z,5.90
2023-03-29T20:23:36.623Z,5.80
2023-03-29T20:26:04.346Z,5.80
2023-03-29T20:28:31.632Z,5.80
2023-03-29T20:31:04.580Z,5.80
2023-03-29T20:33:32.515Z,5.80
2023-03-29T20:35:59.816Z,5.80
2023-03-29T20:38:27.018Z,5.80
2023-03-29T20:40:55.542Z,5.80
2023-03-29T20:43:23.109Z,5.80
2023-03-29T20:45:53.829Z,5.90
2023-03-29T20:48:31.172Z,6.00
2023-03-29T20:50:58.473Z,6.00
2023-03-29T20:53:35.029Z,6.00
2023-03-29T20:56:02.306Z,6.00
2023-03-29T20:58:29.512Z,6.00
2023-03-29T21:00:59.095Z,6.10
2023-03-29T21:03:26.480Z,6.10
2023-03-29T21:05:58.467Z,6.10
2023-03-29T21:08:29.102Z,6.10
2023-03-29T21:10:56.576Z,6.00
2023-03-29T21:13:24.430Z,6.00
2023-03-29T21:15:52.345Z,6.00
2023-03-29T21:18:19.534Z,6.00
2023-03-29T21:20:46.816Z,6.00
2023-03-29T21:23:13.898Z,6.10
2023-03-29T21:25:41.051Z,6.10
2023-03-29T21:28:08.209Z,6.10
2023-03-29T21:30:35.372Z,6.10
2023-03-29T21:33:02.678Z,6.20
2023-03-29T21:35:33.453Z,6.20
2023-03-29T21:38:02.236Z,6.20
2023-03-29T21:40:29.384Z,6.20
2023-03-29T21:42:56.540Z,6.30
2023-03-29T21:45:24.300Z,6.30
2023-03-29T21:47:51.547Z,6.30
2023-03-29T21:50:18.806Z,6.30
2023-03-29T21:52:45.998Z,6.20
2023-03-29T21:55:13.138Z,6.20
2023-03-29T21:57:40.853Z,6.30
2023-03-29T22:00:12.925Z,6.30
2023-03-29T22:02:40.821Z,6.20
2023-03-29T22:05:08.383Z,6.30
2023-03-29T22:07:38.893Z,6.30
2023-03-29T22:10:08.425Z,6.30
2023-03-29T22:12:37.760Z,6.30
2023-03-29T22:15:06.500Z,6.40
2023-03-29T22:17:33.916Z,6.30
2023-03-29T22:20:02.895Z,6.30
2023-03-29T22:22:30.027Z,6.30
2023-03-29T22:24:57.265Z,6.30
2023-03-29T22:27:24.377Z,6.30
2023-03-29T22:29:51.543Z,6.20
2023-03-29T22:32:18.663Z,6.20
2023-03-29T22:34:45.847Z,6.20
2023-03-29T22:37:13.082Z,6.20
2023-03-29T22:39:42.556Z,6.20
2023-03-29T22:42:09.707Z,6.20
2023-03-29T22:44:37.162Z,6.30
2023-03-29T22:47:04.277Z,6.30
2023-03-29T22:49:31.722Z,6.40
2023-03-29T22:52:01.459Z,6.40
2023-03-29T22:54:29.169Z,6.40
2023-03-29T22:56:57.112Z,6.30
2023-03-29T22:59:25.188Z,6.30
2023-03-29T23:01:52.476Z,6.30
2023-03-29T23:04:19.638Z,6.20
2023-03-29T23:06:46.776Z,6.20
2023-03-29T23:09:15.990Z,6.20
2023-03-29T23:11:43.681Z,6.20
2023-03-29T23:14:10.890Z,6.20
2023-03-29T23:16:38.076Z,6.10
2023-03-29T23:19:05.237Z,6.10
2023-03-29T23:21:32.449Z,6.10
2023-03-29T23:24:01.014Z,6.10
2023-03-29T23:26:28.443Z,6.00
2023-03-29T23:28:57.934Z,6.00
2023-03-29T23:31:25.067Z,5.90
2023-03-29T23:33:53.229Z,6.10
2023-03-29T23:36:23.019Z,6.20
2023-03-29T23:38:50.253Z,6.20
2023-03-29T23:41:17.932Z,6.20
2023-03-29T23:43:47.504Z,6.20
2023-03-29T23:46:16.909Z,6.20
2023-03-29T23:48:46.380Z,6.10
2023-03-29T23:51:13.593Z,6.20
2023-03-29T23:53:41.290Z,6.20
2023-03-29T23:56:09.289Z,6.10
2023-03-29T23:58:38.320Z,6.20
